createdAt,value
2023-05-01T00:00:55.192Z,2.10
2023-05-01T00:03:22.668Z,1.80
2023-05-01T00:05:50.201Z,2.00
2023-05-01T00:08:17.512Z,3.10
2023-05-01T00:10:44.771Z,1.70
2023-05-01T00:13:12.273Z,2.50
2023-05-01T00:15:41.076Z,1.70
2023-05-01T00:18:08.369Z,1.60
2023-05-01T00:20:35.731Z,6.10
2023-05-01T00:23:03.187Z,2.20
2023-05-01T00:25:31.491Z,2.30
2023-05-01T00:28:00.008Z,1.60
2023-05-01T00:30:30.278Z,1.50
2023-05-01T00:32:57.241Z,2.00
2023-05-01T00:35:24.279Z,6.00
2023-05-01T00:37:51.231Z,1.80
2023-05-01T00:40:18.650Z,2.80
2023-05-01T00:42:46.178Z,1.90
2023-05-01T00:45:14.654Z,2.00
2023-05-01T00:47:42.238Z,2.00
2023-05-01T00:50:09.760Z,2.10
2023-05-01T00:52:37.498Z,3.70
2023-05-01T00:55:05.528Z,1.90
2023-05-01T00:57:33.733Z,1.80
2023-05-01T01:00:00.645Z,8.90
2023-05-01T01:02:28.033Z,2.90
2023-05-01T01:04:55.609Z,1.60
2023-05-01T01:07:28.405Z,1.70
2023-05-01T01:10:14.256Z,1.60
2023-05-01T01:12:54.149Z,4.70
2023-05-01T01:15:35.865Z,1.20
2023-05-01T01:18:28.584Z,1.30
2023-05-01T01:21:10.358Z,2.90
2023-05-01T01:24:00.469Z,1.60
2023-05-01T01:26:52.564Z,1.50
2023-05-01T01:29:50.205Z,1.40
2023-05-01T01:32:27.020Z,1.30
2023-05-01T01:34:55.534Z,1.60
2023-05-01T01:37:25.390Z,6.40
2023-05-01T01:40:19.850Z,2.00
2023-05-01T01:42:52.361Z,1.80
2023-05-01T01:47:49.266Z,1.70
2023-05-01T01:50:17.051Z,1.50
2023-05-01T01:52:45.818Z,1.30
2023-05-01T01:55:13.628Z,1.80
2023-05-01T01:57:44.061Z,2.90
2023-05-01T02:00:12.900Z,1.80
2023-05-01T02:02:45.229Z,2.40
2023-05-01T02:05:15.102Z,2.60
2023-05-01T02:07:42.849Z,3.50
2023-05-01T02:10:11.174Z,2.60
2023-05-01T02:12:38.680Z,2.30
2023-05-01T02:15:06.994Z,2.20
2023-05-01T02:17:35.856Z,2.30
2023-05-01T02:20:05.719Z,1.80
2023-05-01T02:22:33.955Z,6.30
2023-05-01T02:25:01.955Z,6.70
2023-05-01T02:27:32.158Z,5.20
2023-05-01T02:29:59.681Z,3.80
2023-05-01T02:32:28.747Z,3.00
2023-05-01T02:34:56.381Z,5.80
2023-05-01T02:37:24.034Z,3.00
2023-05-01T02:39:51.486Z,2.60
2023-05-01T02:42:19.054Z,2.50
2023-05-01T02:45:08.013Z,7.50
2023-05-01T02:47:37.600Z,4.30
2023-05-01T02:50:06.287Z,2.70
2023-05-01T02:52:33.880Z,2.50
2023-05-01T02:55:22.537Z,3.20
2023-05-01T02:57:51.879Z,3.80
2023-05-01T03:00:19.830Z,4.80
2023-05-01T03:02:47.601Z,8.70
2023-05-01T03:05:15.889Z,5.00
2023-05-01T03:07:43.324Z,5.50
2023-05-01T03:10:11.340Z,5.70
2023-05-01T03:12:39.261Z,5.00
2023-05-01T03:15:07.111Z,8.90
2023-05-01T03:17:34.734Z,9.30
2023-05-01T03:20:02.695Z,7.70
2023-05-01T03:22:33.259Z,5.40
2023-05-01T03:25:01.562Z,6.70
2023-05-01T03:27:29.155Z,6.70
2023-05-01T03:29:57.279Z,7.10
2023-05-01T03:32:25.816Z,10.80
2023-05-01T03:34:53.902Z,7.80
2023-05-01T03:37:21.689Z,3.90
2023-05-01T03:39:49.387Z,5.30
2023-05-01T03:42:55.086Z,5.40
2023-05-01T03:45:25.016Z,4.60
2023-05-01T03:47:53.217Z,4.30
2023-05-01T03:50:20.934Z,4.30
2023-05-01T03:52:49.401Z,6.40
2023-05-01T03:55:16.948Z,6.90
2023-05-01T03:57:47.864Z,7.80
2023-05-01T04:00:16.175Z,7.70
2023-05-01T04:02:44.214Z,9.20
2023-05-01T04:05:15.252Z,13.70
2023-05-01T04:07:47.113Z,14.50
2023-05-01T04:10:14.792Z,7.70
2023-05-01T04:12:47.602Z,10.10
2023-05-01T04:15:15.627Z,4.90
2023-05-01T04:17:46.452Z,10.70
2023-05-01T04:20:14.109Z,4.60
2023-05-01T04:22:41.871Z,6.10
2023-05-01T04:25:10.883Z,5.00
2023-05-01T04:27:38.701Z,4.40
2023-05-01T04:30:07.123Z,4.90
2023-05-01T04:32:35.751Z,4.20
2023-05-01T04:35:04.956Z,3.60
2023-05-01T04:37:32.403Z,4.00
2023-05-01T04:39:59.908Z,4.70
2023-05-01T04:42:33.628Z,13.80
2023-05-01T04:45:04.335Z,16.80
2023-05-01T04:47:34.997Z,11.70
2023-05-01T04:50:02.514Z,7.20
2023-05-01T04:52:30.905Z,3.30
2023-05-01T04:55:00.559Z,4.80
2023-05-01T04:57:30.040Z,3.90
2023-05-01T04:59:57.850Z,3.20
2023-05-01T05:02:25.697Z,3.00
2023-05-01T05:04:54.619Z,3.70
2023-05-01T05:07:23.279Z,1.90
2023-05-01T05:10:10.114Z,2.30
2023-05-01T05:12:37.666Z,2.50
2023-05-01T05:15:06.315Z,2.80
2023-05-01T05:17:33.820Z,4.10
2023-05-01T05:20:01.484Z,2.10
2023-05-01T05:22:29.034Z,4.30
2023-05-01T05:25:14.680Z,1.90
2023-05-01T05:27:41.606Z,2.20
2023-05-01T05:30:09.184Z,4.20
2023-05-01T05:32:36.542Z,7.30
2023-05-01T05:35:03.979Z,2.50
2023-05-01T05:37:31.162Z,2.80
2023-05-01T05:39:58.704Z,3.00
2023-05-01T05:42:27.465Z,3.60
2023-05-01T05:44:54.541Z,3.80
2023-05-01T05:47:22.165Z,2.10
2023-05-01T05:49:49.946Z,3.40
2023-05-01T05:52:17.859Z,5.00
2023-05-01T05:54:45.140Z,4.10
2023-05-01T05:57:12.516Z,2.90
2023-05-01T05:59:44.736Z,3.40
2023-05-01T06:02:13.062Z,2.50
2023-05-01T06:04:40.578Z,2.10
2023-05-01T06:07:08.315Z,2.70
2023-05-01T06:09:36.725Z,3.10
2023-05-01T06:12:06.950Z,2.10
2023-05-01T06:14:34.372Z,2.50
2023-05-01T06:17:01.767Z,2.40
2023-05-01T06:19:29.380Z,2.50
2023-05-01T06:22:05.159Z,2.00
2023-05-01T06:24:33.745Z,2.00
2023-05-01T06:27:02.364Z,8.50
2023-05-01T06:29:29.562Z,12.20
2023-05-01T06:31:57.047Z,22.00
2023-05-01T06:34:24.460Z,16.50
2023-05-01T06:36:53.702Z,3.00
2023-05-01T06:39:21.226Z,6.20
2023-05-01T06:41:48.736Z,3.00
2023-05-01T06:44:16.979Z,3.00
2023-05-01T06:46:44.202Z,2.20
2023-05-01T06:49:14.750Z,1.90
2023-05-01T06:51:41.620Z,5.50
2023-05-01T06:54:08.973Z,4.70
2023-05-01T06:56:36.245Z,2.10
2023-05-01T06:59:04.014Z,2.50
2023-05-01T07:01:33.885Z,3.30
2023-05-01T07:04:04.494Z,2.20
2023-05-01T07:06:32.877Z,1.40
2023-05-01T07:09:00.265Z,2.20
2023-05-01T07:11:27.660Z,4.40
2023-05-01T07:13:55.122Z,3.40
2023-05-01T07:16:22.582Z,3.40
2023-05-01T07:18:50.158Z,4.50
2023-05-01T07:21:17.496Z,3.90
2023-05-01T07:23:45.090Z,2.40
2023-05-01T07:26:12.384Z,2.60
2023-05-01T07:28:39.856Z,3.30
2023-05-01T07:31:07.569Z,3.40
2023-05-01T07:33:34.945Z,24.80
2023-05-01T07:36:03.517Z,4.10
2023-05-01T07:38:31.228Z,6.80
2023-05-01T07:40:58.825Z,12.70
2023-05-01T07:43:26.267Z,3.00
2023-05-01T07:45:56.541Z,10.70
2023-05-01T07:48:23.487Z,5.30
2023-05-01T07:50:50.400Z,7.00
2023-05-01T07:53:17.914Z,12.70
2023-05-01T07:55:45.206Z,3.20
2023-05-01T07:58:12.697Z,4.70
2023-05-01T08:00:40.098Z,4.50
2023-05-01T08:03:07.917Z,3.30
2023-05-01T08:05:35.384Z,6.10
2023-05-01T08:08:03.022Z,3.50
2023-05-01T08:10:30.464Z,3.40
2023-05-01T08:12:57.821Z,4.50
2023-05-01T08:15:25.409Z,7.10
2023-05-01T08:17:52.813Z,3.80
2023-05-01T08:20:20.288Z,3.80
2023-05-01T08:22:47.696Z,4.50
2023-05-01T08:25:15.227Z,6.00
2023-05-01T08:27:43.188Z,4.60
2023-05-01T08:30:11.201Z,6.50
2023-05-01T08:32:38.698Z,3.10
2023-05-01T08:35:06.588Z,4.10
2023-05-01T08:37:34.016Z,5.40
2023-05-01T08:40:03.857Z,3.90
2023-05-01T08:42:32.338Z,4.50
2023-05-01T08:45:00.060Z,3.40
2023-05-01T08:47:27.395Z,3.30
2023-05-01T08:49:55.041Z,2.90
2023-05-01T08:52:22.605Z,8.20
2023-05-01T08:54:50.000Z,6.80
2023-05-01T08:57:17.360Z,4.90
2023-05-01T08:59:44.795Z,4.40
2023-05-01T09:02:12.295Z,2.70
2023-05-01T09:04:40.913Z,4.90
2023-05-01T09:07:10.641Z,3.60
2023-05-01T09:09:37.809Z,5.90
2023-05-01T09:12:23.527Z,18.00
2023-05-01T09:14:54.861Z,5.90
2023-05-01T09:17:23.094Z,14.70
2023-05-01T09:19:53.446Z,11.70
2023-05-01T09:22:21.337Z,7.70
2023-05-01T09:24:48.987Z,6.70
2023-05-01T09:27:16.265Z,6.00
2023-05-01T09:29:47.604Z,5.20
2023-05-01T09:32:21.030Z,4.40
2023-05-01T09:34:49.465Z,5.00
2023-05-01T09:37:33.683Z,4.20
2023-05-01T09:40:07.818Z,7.20
2023-05-01T09:42:37.453Z,5.80
2023-05-01T09:45:07.172Z,4.80
2023-05-01T09:47:34.906Z,3.90
2023-05-01T09:50:02.263Z,6.10
2023-05-01T09:52:30.540Z,8.50
2023-05-01T09:55:18.978Z,7.50
2023-05-01T09:57:46.806Z,6.20
2023-05-01T10:00:20.974Z,3.50
2023-05-01T10:02:51.694Z,2.70
2023-05-01T10:05:19.295Z,4.00
2023-05-01T10:08:01.206Z,4.20
2023-05-01T10:10:29.185Z,12.20
2023-05-01T10:12:56.920Z,10.90
2023-05-01T10:15:26.790Z,9.90
2023-05-01T10:17:55.812Z,4.00
2023-05-01T10:20:23.345Z,5.30
2023-05-01T10:22:53.530Z,4.70
2023-05-01T10:25:21.200Z,8.50
2023-05-01T10:27:49.465Z,9.60
2023-05-01T10:30:16.808Z,10.20
2023-05-01T10:32:44.261Z,11.00
2023-05-01T10:35:13.722Z,19.10
2023-05-01T10:37:49.042Z,28.80
2023-05-01T10:40:48.550Z,11.40
2023-05-01T10:43:21.020Z,4.60
2023-05-01T10:45:52.275Z,4.80
2023-05-01T10:48:39.706Z,3.30
2023-05-01T10:51:11.379Z,6.50
2023-05-01T10:53:39.512Z,5.80
2023-05-01T10:56:27.424Z,8.30
2023-05-01T10:58:59.012Z,9.30
2023-05-01T11:01:37.007Z,10.30
2023-05-01T11:04:08.532Z,5.20
2023-05-01T11:06:36.928Z,7.20
2023-05-01T11:09:43.128Z,5.00
2023-05-01T11:12:11.826Z,7.40
2023-05-01T11:15:08.487Z,11.90
2023-05-01T11:17:40.041Z,9.70
2023-05-01T11:20:27.080Z,11.70
2023-05-01T11:22:56.063Z,7.60
2023-05-01T11:25:24.846Z,15.60
2023-05-01T11:27:58.558Z,4.60
2023-05-01T11:30:26.168Z,2.60
2023-05-01T11:32:53.824Z,10.00
2023-05-01T11:35:26.619Z,32.90
2023-05-01T11:37:56.124Z,27.00
2023-05-01T11:40:32.315Z,10.90
2023-05-01T11:43:07.395Z,7.00
2023-05-01T11:45:36.075Z,13.10
2023-05-01T11:48:04.931Z,10.10
2023-05-01T11:50:35.853Z,6.70
2023-05-01T11:53:17.840Z,3.50
2023-05-01T11:55:45.486Z,12.90
2023-05-01T11:58:13.077Z,11.30
2023-05-01T12:00:42.521Z,6.80
2023-05-01T12:03:14.550Z,4.60
2023-05-01T12:05:44.390Z,11.70
2023-05-01T12:08:23.755Z,8.60
2023-05-01T12:10:57.980Z,35.90
2023-05-01T12:13:26.261Z,14.00
2023-05-01T12:15:54.889Z,31.10
2023-05-01T12:18:22.365Z,12.60
2023-05-01T12:20:54.797Z,4.40
2023-05-01T12:23:37.568Z,6.60
2023-05-01T12:26:19.951Z,14.80
2023-05-01T12:29:00.373Z,22.10
2023-05-01T12:31:28.285Z,23.20
2023-05-01T12:33:57.054Z,14.30
2023-05-01T12:36:25.611Z,9.30
2023-05-01T12:39:12.608Z,22.70
2023-05-01T12:41:45.281Z,26.70
2023-05-01T12:44:26.064Z,31.10
2023-05-01T12:47:14.271Z,17.20
2023-05-01T12:49:41.528Z,25.70
2023-05-01T12:52:09.432Z,21.90
2023-05-01T12:54:39.348Z,44.00
2023-05-01T12:57:15.051Z,27.80
2023-05-01T12:59:44.029Z,18.60
2023-05-01T13:02:16.072Z,24.10
2023-05-01T13:04:43.921Z,22.20
2023-05-01T13:07:34.390Z,6.80
2023-05-01T13:10:10.235Z,9.40
2023-05-01T13:12:44.755Z,4.50
2023-05-01T13:15:22.141Z,6.10
2023-05-01T13:17:49.565Z,27.70
2023-05-01T13:20:25.736Z,5.80
2023-05-01T13:22:53.345Z,25.70
2023-05-01T13:25:20.921Z,23.40
2023-05-01T13:27:52.792Z,15.80
2023-05-01T13:30:22.211Z,6.50
2023-05-01T13:32:50.020Z,16.00
2023-05-01T13:35:25.186Z,33.30
2023-05-01T13:37:52.945Z,25.90
2023-05-01T13:40:20.573Z,11.20
2023-05-01T13:42:53.376Z,11.80
2023-05-01T13:45:23.689Z,17.20
2023-05-01T13:47:55.568Z,36.90
2023-05-01T13:50:23.272Z,17.50
2023-05-01T13:52:50.801Z,22.00
2023-05-01T13:55:19.010Z,33.60
2023-05-01T13:57:46.507Z,45.00
2023-05-01T14:00:17.887Z,31.30
2023-05-01T14:02:47.777Z,47.70
2023-05-01T14:05:15.920Z,51.20
2023-05-01T14:08:02.474Z,22.60
2023-05-01T14:10:30.123Z,25.90
2023-05-01T14:12:58.967Z,20.00
2023-05-01T14:15:27.055Z,12.40
2023-05-01T14:17:54.847Z,15.50
2023-05-01T14:20:27.403Z,26.10
2023-05-01T14:22:54.903Z,37.30
2023-05-01T14:25:30.001Z,28.70
2023-05-01T14:27:59.344Z,25.50
2023-05-01T14:30:30.491Z,23.10
2023-05-01T14:32:58.042Z,23.00
2023-05-01T14:35:25.605Z,9.50
2023-05-01T14:37:52.859Z,8.70
2023-05-01T14:40:26.622Z,21.10
2023-05-01T14:42:55.345Z,19.80
2023-05-01T14:45:22.798Z,28.30
2023-05-01T14:47:50.260Z,22.30
2023-05-01T14:50:24.400Z,37.30
2023-05-01T14:52:56.100Z,42.40
2023-05-01T14:55:28.493Z,21.00
2023-05-01T14:57:56.158Z,8.80
2023-05-01T15:00:24.386Z,7.80
2023-05-01T15:02:57.958Z,8.60
2023-05-01T15:05:29.158Z,9.60
2023-05-01T15:07:56.993Z,10.00
2023-05-01T15:10:24.441Z,8.50
2023-05-01T15:12:55.196Z,5.20
2023-05-01T15:15:22.763Z,6.70
2023-05-01T15:17:50.374Z,4.10
2023-05-01T15:20:18.186Z,8.80
2023-05-01T15:22:46.083Z,4.00
2023-05-01T15:25:13.573Z,3.40
2023-05-01T15:27:41.260Z,3.80
2023-05-01T15:30:10.515Z,5.50
2023-05-01T15:32:38.469Z,4.90
2023-05-01T15:35:06.044Z,3.40
2023-05-01T15:37:33.443Z,5.60
2023-05-01T15:40:01.308Z,4.90
2023-05-01T15:42:28.790Z,8.20
2023-05-01T15:44:56.315Z,4.30
2023-05-01T15:47:23.995Z,9.90
2023-05-01T15:49:51.415Z,11.30
2023-05-01T15:52:18.892Z,13.30
2023-05-01T15:54:47.445Z,6.00
2023-05-01T15:57:17.880Z,6.60
2023-05-01T15:59:45.373Z,7.50
2023-05-01T16:02:13.076Z,11.10
2023-05-01T16:04:40.586Z,16.80
2023-05-01T16:07:09.015Z,37.20
2023-05-01T16:09:36.598Z,40.30
2023-05-01T16:12:04.447Z,35.50
2023-05-01T16:14:31.906Z,68.30
2023-05-01T16:16:59.384Z,46.80
2023-05-01T16:19:30.771Z,58.70
2023-05-01T16:21:58.453Z,48.20
2023-05-01T16:24:26.395Z,33.50
2023-05-01T16:26:54.620Z,27.10
2023-05-01T16:29:22.205Z,17.90
2023-05-01T16:31:49.688Z,6.30
2023-05-01T16:34:20.244Z,7.20
2023-05-01T16:36:47.482Z,10.00
2023-05-01T16:39:16.578Z,7.40
2023-05-01T16:41:46.662Z,5.90
2023-05-01T16:44:14.549Z,7.10
2023-05-01T16:46:43.277Z,5.80
2023-05-01T16:49:11.673Z,7.70
2023-05-01T16:51:39.612Z,5.40
2023-05-01T16:54:06.778Z,5.70
2023-05-01T16:56:34.193Z,11.10
2023-05-01T16:59:01.763Z,8.70
2023-05-01T17:01:29.318Z,7.00
2023-05-01T17:03:57.001Z,10.30
2023-05-01T17:06:24.705Z,26.10
2023-05-01T17:08:52.180Z,24.00
2023-05-01T17:11:19.476Z,17.20
2023-05-01T17:13:46.841Z,20.30
2023-05-01T17:16:14.187Z,11.20
2023-05-01T17:18:41.553Z,16.60
2023-05-01T17:21:09.812Z,17.30
2023-05-01T17:23:37.425Z,27.40
2023-05-01T17:26:05.718Z,15.40
2023-05-01T17:28:33.025Z,22.30
2023-05-01T17:31:00.387Z,17.20
2023-05-01T17:33:29.824Z,47.10
2023-05-01T17:35:59.844Z,26.30
2023-05-01T17:38:27.394Z,27.90
2023-05-01T17:40:54.888Z,17.40
2023-05-01T17:43:22.236Z,23.90
2023-05-01T17:45:50.472Z,25.80
2023-05-01T17:48:19.765Z,26.50
2023-05-01T17:50:47.534Z,35.90
2023-05-01T17:53:14.782Z,63.40
2023-05-01T17:55:42.313Z,40.60
2023-05-01T17:58:09.818Z,45.10
2023-05-01T18:00:37.050Z,38.40
2023-05-01T18:03:05.149Z,48.90
2023-05-01T18:05:32.569Z,47.50
2023-05-01T18:07:59.969Z,45.70
2023-05-01T18:10:31.318Z,47.00
2023-05-01T18:12:58.888Z,42.00
2023-05-01T18:15:26.492Z,48.10
2023-05-01T18:17:54.339Z,45.50
2023-05-01T18:20:21.775Z,45.70
2023-05-01T18:22:49.114Z,53.10
2023-05-01T18:25:16.840Z,64.00
2023-05-01T18:27:45.216Z,62.60
2023-05-01T18:30:13.063Z,51.40
2023-05-01T18:32:48.031Z,49.30
2023-05-01T18:35:17.207Z,61.00
2023-05-01T18:37:44.782Z,54.40
2023-05-01T18:40:32.363Z,60.70
2023-05-01T18:42:59.733Z,70.80
2023-05-01T18:45:33.576Z,68.60
2023-05-01T18:48:01.190Z,83.30
2023-05-01T18:50:29.209Z,78.10
2023-05-01T18:52:56.578Z,67.60
2023-05-01T18:55:25.384Z,59.60
2023-05-01T18:57:53.150Z,51.90
2023-05-01T19:00:21.626Z,58.50
2023-05-01T19:02:52.289Z,55.00
2023-05-01T19:05:20.097Z,63.70
2023-05-01T19:07:49.781Z,66.60
2023-05-01T19:10:17.928Z,54.10
2023-05-01T19:12:45.971Z,60.70
2023-05-01T19:15:17.862Z,52.10
2023-05-01T19:17:45.368Z,59.30
2023-05-01T19:20:12.876Z,46.80
2023-05-01T19:22:40.306Z,52.60
2023-05-01T19:25:08.511Z,50.40
2023-05-01T19:27:36.262Z,40.50
2023-05-01T19:30:04.342Z,38.60
2023-05-01T19:32:31.864Z,50.40
2023-05-01T19:34:59.329Z,44.50
2023-05-01T19:37:27.346Z,40.30
2023-05-01T19:39:54.878Z,48.70
2023-05-01T19:42:22.315Z,42.20
2023-05-01T19:44:52.881Z,47.50
2023-05-01T19:47:20.628Z,48.60
2023-05-01T19:49:47.972Z,44.70
2023-05-01T19:52:15.244Z,44.10
2023-05-01T19:54:44.067Z,48.10
2023-05-01T19:57:11.854Z,41.50
2023-05-01T19:59:41.984Z,42.90
2023-05-01T20:02:09.530Z,49.50
2023-05-01T20:04:36.668Z,45.00
2023-05-01T20:07:04.765Z,35.30
2023-05-01T20:09:32.100Z,42.70
2023-05-01T20:11:58.980Z,46.80
2023-05-01T20:14:25.926Z,43.20
2023-05-01T20:16:53.973Z,48.30
2023-05-01T20:19:20.931Z,43.60
2023-05-01T20:21:48.143Z,41.60
2023-05-01T20:24:15.465Z,49.50
2023-05-01T20:26:43.083Z,36.80
2023-05-01T20:29:10.470Z,46.40
2023-05-01T20:31:37.979Z,45.20
2023-05-01T20:34:06.036Z,41.90
2023-05-01T20:36:34.004Z,41.90
2023-05-01T20:39:01.437Z,44.90
2023-05-01T20:41:29.343Z,33.20
2023-05-01T20:43:57.319Z,30.70
2023-05-01T20:46:24.947Z,34.70
2023-05-01T20:48:53.751Z,31.40
2023-05-01T20:51:21.025Z,34.10
2023-05-01T20:53:48.838Z,31.40
2023-05-01T20:56:16.150Z,33.40
2023-05-01T20:58:43.563Z,22.20
2023-05-01T21:01:11.903Z,25.20
2023-05-01T21:03:39.192Z,33.90
2023-05-01T21:06:06.773Z,22.10
2023-05-01T21:08:34.246Z,29.20
2023-05-01T21:11:02.237Z,21.10
2023-05-01T21:13:29.547Z,25.20
2023-05-01T21:15:56.776Z,26.80
2023-05-01T21:18:24.178Z,25.70
2023-05-01T21:20:51.747Z,25.40
2023-05-01T21:23:19.126Z,21.00
2023-05-01T21:25:46.572Z,17.80
2023-05-01T21:28:14.362Z,19.80
2023-05-01T21:30:41.736Z,22.10
2023-05-01T21:33:12.900Z,19.90
2023-05-01T21:35:41.794Z,16.20
2023-05-01T21:38:09.022Z,16.10
2023-05-01T21:40:37.202Z,16.70
2023-05-01T21:43:05.293Z,20.40
2023-05-01T21:45:34.490Z,20.30
2023-05-01T21:48:01.934Z,13.10
2023-05-01T21:50:29.408Z,21.90
2023-05-01T21:52:56.851Z,16.60
2023-05-01T21:55:25.843Z,17.00
2023-05-01T21:57:55.834Z,18.90
2023-05-01T22:00:22.737Z,14.70
2023-05-01T22:02:50.133Z,21.90
2023-05-01T22:05:18.415Z,22.10
2023-05-01T22:07:46.203Z,12.90
2023-05-01T22:10:15.532Z,13.20
2023-05-01T22:12:42.518Z,14.40
2023-05-01T22:15:10.562Z,16.60
2023-05-01T22:17:38.129Z,16.10
2023-05-01T22:20:07.195Z,12.50
2023-05-01T22:22:34.726Z,11.10
2023-05-01T22:25:02.546Z,19.70
2023-05-01T22:27:30.388Z,19.70
2023-05-01T22:29:57.914Z,15.00
2023-05-01T22:32:25.517Z,13.20
2023-05-01T22:34:53.085Z,13.10
2023-05-01T22:37:20.587Z,12.20
2023-05-01T22:39:47.936Z,17.70
2023-05-01T22:42:15.395Z,13.00
2023-05-01T22:44:42.722Z,12.50
2023-05-01T22:47:10.172Z,16.00
2023-05-01T22:49:37.643Z,15.10
2023-05-01T22:52:05.268Z,17.10
2023-05-01T22:54:32.790Z,17.10
2023-05-01T22:57:00.204Z,13.40
2023-05-01T22:59:27.521Z,18.20
2023-05-01T23:01:55.004Z,22.00
2023-05-01T23:04:22.453Z,18.50
2023-05-01T23:06:49.883Z,10.90
2023-05-01T23:09:17.858Z,16.20
2023-05-01T23:11:46.433Z,13.50
2023-05-01T23:14:17.385Z,20.20
2023-05-01T23:16:44.818Z,32.50
2023-05-01T23:19:22.853Z,16.40
2023-05-01T23:21:51.482Z,30.30
2023-05-01T23:24:19.976Z,35.00
2023-05-01T23:26:47.074Z,27.80
2023-05-01T23:29:13.982Z,17.90
2023-05-01T23:31:46.638Z,22.80
2023-05-01T23:34:19.429Z,20.80
2023-05-01T23:36:47.087Z,36.80
2023-05-01T23:39:14.294Z,26.20
2023-05-01T23:41:41.692Z,39.20
2023-05-01T23:44:09.701Z,30.70
2023-05-01T23:46:37.406Z,44.10
2023-05-01T23:49:04.696Z,44.20
2023-05-01T23:51:32.095Z,77.80
2023-05-01T23:54:00.164Z,44.10
2023-05-01T23:56:27.579Z,28.90
2023-05-01T23:58:54.952Z,33.80
